This is the latest recevied weather packets stored in our database for station/object AE0NK. If no packets are shown the sender has not sent any weather packets the latest 1 day(s).
| Time | Temp. | Humidity | Pressure | Rain* | Wind** | Luminosity | Snow |
|---|---|---|---|---|---|---|---|
| 1778034804 | 11.67° C | 42% | 1011 hPa | 0 mm | 1.34 m/s, 15° | 0 W/m² | - |
| 1778034502 | 11.67° C | 42% | 1011.3 hPa | 0 mm | 0.89 m/s, 296° | 0 W/m² | - |
| 1778034200 | 11.67° C | 47% | 1010.9 hPa | 0 mm | 0.89 m/s, 355° | 0 W/m² | - |
| 1778033899 | 12.22° C | 45% | 1010.7 hPa | 0 mm | 0.45 m/s, 348° | 0 W/m² | - |
| 1778033597 | 12.22° C | 42% | 1010.5 hPa | 0 mm | 0 m/s | 0 W/m² | - |
| 1778033296 | 12.22° C | 41% | 1010.4 hPa | 0 mm | 0 m/s | 0 W/m² | - |
| 1778032993 | 12.22° C | 40% | 1010.3 hPa | 0 mm | 0.45 m/s, 303° | 0 W/m² | - |
| 1778032707 | 12.22° C | 40% | 1010.2 hPa | 0 mm | 0 m/s | 0 W/m² | - |
| 1778032404 | 12.78° C | 39% | 1010.2 hPa | 0 mm | 0 m/s | 0 W/m² | - |
| 1778032102 | 12.78° C | 39% | 1010.1 hPa | 0 mm | 0 m/s | 0 W/m² | - |
| 1778031800 | 12.78° C | 37% | 1010.1 hPa | 0 mm | 0.45 m/s, 302° | 0 W/m² | - |
| 1778031499 | 12.78° C | 38% | 1010.1 hPa | 0 mm | 0 m/s | 0 W/m² | - |
| 1778031196 | 12.78° C | 37% | 1009.9 hPa | 0 mm | 0.89 m/s, 298° | 0 W/m² | - |
| 1778030895 | 12.78° C | 36% | 1009.9 hPa | 0 mm | 0.89 m/s, 301° | 0 W/m² | - |
| 1778030592 | 13.33° C | 34% | 1009.8 hPa | 0 mm | 1.34 m/s, 306° | 0 W/m² | - |
| 1778030008 | 13.33° C | 36% | 1009.5 hPa | 0 mm | 0.45 m/s, 326° | 0 W/m² | - |
| 1778029706 | 13.33° C | 35% | 1009.5 hPa | 0 mm | 0.45 m/s, 313° | 0 W/m² | - |
| 1778029405 | 13.33° C | 35% | 1009.6 hPa | 0 mm | 0.89 m/s, 331° | 0 W/m² | - |
| 1778029100 | 13.33° C | 35% | 1009.4 hPa | 0 mm | 0.45 m/s, 307° | 5 W/m² | - |
| 1778028818 | 13.33° C | 35% | 1009.4 hPa | 0 mm | 0 m/s | 7 W/m² | - |
| 1778028508 | 13.33° C | 33% | 1009.3 hPa | 0 mm | 1.79 m/s, 312° | 11 W/m² | - |
| 1778028207 | 13.33° C | 33% | 1009.4 hPa | 0 mm | 1.79 m/s, 300° | 14 W/m² | - |
| 1778027904 | 13.89° C | 38% | 1009.4 hPa | 0 mm | 1.79 m/s, 319° | 19 W/m² | - |
| 1778027600 | 13.33° C | 37% | 1009.4 hPa | 0 mm | 0.89 m/s, 313° | 23 W/m² | - |
| 1778027297 | 13.89° C | 37% | 1009.2 hPa | 0 mm | 0.89 m/s, 304° | 25 W/m² | - |
* Rain latest hour (hover to see other rain measurements)
** Current wind speed in m/s (hover to see current wind gust speed)